sensor_id;sensor_type;location;lat;lon;timestamp;P1;durP1;ratioP1;P2;durP2;ratioP2
46391;SDS011;32098;49.448;7.904;2023-03-05T00:01:08;16.67;;;8.97;;
46391;SDS011;32098;49.448;7.904;2023-03-05T00:03:39;19.60;;;9.10;;
46391;SDS011;32098;49.448;7.904;2023-03-05T00:06:06;20.70;;;10.10;;
46391;SDS011;32098;49.448;7.904;2023-03-05T00:08:32;18.63;;;9.83;;
46391;SDS011;32098;49.448;7.904;2023-03-05T00:11:00;18.87;;;9.07;;
46391;SDS011;32098;49.448;7.904;2023-03-05T00:13:29;19.00;;;9.03;;
46391;SDS011;32098;49.448;7.904;2023-03-05T00:15:56;18.50;;;9.40;;
46391;SDS011;32098;49.448;7.904;2023-03-05T00:18:23;19.80;;;9.57;;
46391;SDS011;32098;49.448;7.904;2023-03-05T00:20:49;17.33;;;8.90;;
46391;SDS011;32098;49.448;7.904;2023-03-05T00:23:16;20.03;;;8.93;;
46391;SDS011;32098;49.448;7.904;2023-03-05T00:25:42;20.60;;;9.20;;
46391;SDS011;32098;49.448;7.904;2023-03-05T00:28:11;20.43;;;9.67;;
46391;SDS011;32098;49.448;7.904;2023-03-05T00:30:38;17.73;;;9.37;;
46391;SDS011;32098;49.448;7.904;2023-03-05T00:33:04;20.60;;;9.47;;
46391;SDS011;32098;49.448;7.904;2023-03-05T00:35:31;22.37;;;10.30;;
46391;SDS011;32098;49.448;7.904;2023-03-05T00:38:04;21.17;;;9.97;;
46391;SDS011;32098;49.448;7.904;2023-03-05T00:40:33;21.87;;;10.40;;
46391;SDS011;32098;49.448;7.904;2023-03-05T00:43:02;19.13;;;9.37;;
46391;SDS011;32098;49.448;7.904;2023-03-05T00:45:28;19.83;;;10.60;;
46391;SDS011;32098;49.448;7.904;2023-03-05T00:47:56;23.50;;;11.47;;
46391;SDS011;32098;49.448;7.904;2023-03-05T00:50:23;24.83;;;10.33;;
46391;SDS011;32098;49.448;7.904;2023-03-05T00:52:52;19.80;;;9.60;;
46391;SDS011;32098;49.448;7.904;2023-03-05T00:55:19;19.87;;;9.97;;
46391;SDS011;32098;49.448;7.904;2023-03-05T00:57:45;17.93;;;9.87;;
46391;SDS011;32098;49.448;7.904;2023-03-05T01:00:13;21.87;;;10.13;;
46391;SDS011;32098;49.448;7.904;2023-03-05T01:02:40;22.30;;;10.90;;
46391;SDS011;32098;49.448;7.904;2023-03-05T01:05:09;21.57;;;12.13;;
46391;SDS011;32098;49.448;7.904;2023-03-05T01:07:37;27.80;;;15.33;;
46391;SDS011;32098;49.448;7.904;2023-03-05T01:10:05;25.50;;;14.00;;
46391;SDS011;32098;49.448;7.904;2023-03-05T01:12:32;24.80;;;13.17;;
46391;SDS011;32098;49.448;7.904;2023-03-05T01:14:58;25.87;;;14.13;;
46391;SDS011;32098;49.448;7.904;2023-03-05T01:17:25;24.97;;;13.47;;
46391;SDS011;32098;49.448;7.904;2023-03-05T01:19:52;21.37;;;12.40;;
46391;SDS011;32098;49.448;7.904;2023-03-05T01:22:18;26.53;;;12.23;;
46391;SDS011;32098;49.448;7.904;2023-03-05T01:24:45;22.83;;;12.37;;
46391;SDS011;32098;49.448;7.904;2023-03-05T01:27:11;30.13;;;16.80;;
46391;SDS011;32098;49.448;7.904;2023-03-05T01:29:38;25.10;;;15.27;;
46391;SDS011;32098;49.448;7.904;2023-03-05T01:32:04;29.70;;;15.50;;
46391;SDS011;32098;49.448;7.904;2023-03-05T01:34:31;25.90;;;14.13;;
46391;SDS011;32098;49.448;7.904;2023-03-05T01:36:58;24.33;;;14.13;;
46391;SDS011;32098;49.448;7.904;2023-03-05T01:39:24;23.53;;;14.10;;
46391;SDS011;32098;49.448;7.904;2023-03-05T01:41:51;22.07;;;13.23;;
46391;SDS011;32098;49.448;7.904;2023-03-05T01:44:21;22.93;;;12.50;;
46391;SDS011;32098;49.448;7.904;2023-03-05T01:46:50;24.43;;;13.33;;
46391;SDS011;32098;49.448;7.904;2023-03-05T01:49:22;26.47;;;13.23;;
46391;SDS011;32098;49.448;7.904;2023-03-05T01:52:15;25.27;;;13.27;;
46391;SDS011;32098;49.448;7.904;2023-03-05T01:54:50;26.67;;;14.43;;
46391;SDS011;32098;49.448;7.904;2023-03-05T01:57:28;24.90;;;14.40;;
46391;SDS011;32098;49.448;7.904;2023-03-05T02:00:00;32.47;;;15.37;;
46391;SDS011;32098;49.448;7.904;2023-03-05T02:02:38;26.10;;;13.90;;
46391;SDS011;32098;49.448;7.904;2023-03-05T02:05:07;25.70;;;13.37;;
46391;SDS011;32098;49.448;7.904;2023-03-05T02:07:37;23.43;;;13.37;;
46391;SDS011;32098;49.448;7.904;2023-03-05T02:10:51;22.90;;;11.83;;
46391;SDS011;32098;49.448;7.904;2023-03-05T02:13:01;21.77;;;10.47;;
46391;SDS011;32098;49.448;7.904;2023-03-05T02:15:31;20.40;;;11.00;;
46391;SDS011;32098;49.448;7.904;2023-03-05T02:17:58;22.63;;;10.70;;
46391;SDS011;32098;49.448;7.904;2023-03-05T02:20:27;20.13;;;11.43;;
46391;SDS011;32098;49.448;7.904;2023-03-05T02:22:56;19.37;;;11.13;;
46391;SDS011;32098;49.448;7.904;2023-03-05T02:25:27;18.57;;;9.97;;
46391;SDS011;32098;49.448;7.904;2023-03-05T02:27:56;16.47;;;8.77;;
46391;SDS011;32098;49.448;7.904;2023-03-05T02:30:27;20.10;;;9.77;;
46391;SDS011;32098;49.448;7.904;2023-03-05T02:32:53;18.17;;;9.90;;
46391;SDS011;32098;49.448;7.904;2023-03-05T02:35:20;21.23;;;10.53;;
46391;SDS011;32098;49.448;7.904;2023-03-05T02:37:47;17.90;;;9.40;;
46391;SDS011;32098;49.448;7.904;2023-03-05T02:40:13;18.13;;;9.37;;
46391;SDS011;32098;49.448;7.904;2023-03-05T02:42:41;18.87;;;9.70;;
46391;SDS011;32098;49.448;7.904;2023-03-05T02:45:11;18.60;;;10.10;;
46391;SDS011;32098;49.448;7.904;2023-03-05T02:47:39;21.40;;;10.80;;
46391;SDS011;32098;49.448;7.904;2023-03-05T02:50:08;18.60;;;10.63;;
46391;SDS011;32098;49.448;7.904;2023-03-05T02:52:36;20.07;;;10.83;;
46391;SDS011;32098;49.448;7.904;2023-03-05T02:55:08;20.30;;;9.97;;
46391;SDS011;32098;49.448;7.904;2023-03-05T02:57:36;20.43;;;11.73;;
46391;SDS011;32098;49.448;7.904;2023-03-05T03:00:03;20.47;;;10.87;;
46391;SDS011;32098;49.448;7.904;2023-03-05T03:02:31;20.30;;;9.83;;
46391;SDS011;32098;49.448;7.904;2023-03-05T03:04:59;21.43;;;10.77;;
46391;SDS011;32098;49.448;7.904;2023-03-05T03:07:25;20.23;;;10.77;;
46391;SDS011;32098;49.448;7.904;2023-03-05T03:09:52;20.20;;;10.40;;
46391;SDS011;32098;49.448;7.904;2023-03-05T03:12:18;20.87;;;10.73;;
46391;SDS011;32098;49.448;7.904;2023-03-05T03:14:45;20.20;;;10.53;;
46391;SDS011;32098;49.448;7.904;2023-03-05T03:17:12;17.80;;;10.13;;
46391;SDS011;32098;49.448;7.904;2023-03-05T03:19:41;16.73;;;9.90;;
46391;SDS011;32098;49.448;7.904;2023-03-05T03:22:10;16.60;;;8.90;;
46391;SDS011;32098;49.448;7.904;2023-03-05T03:24:39;18.27;;;9.33;;
46391;SDS011;32098;49.448;7.904;2023-03-05T03:27:07;21.70;;;9.63;;
46391;SDS011;32098;49.448;7.904;2023-03-05T03:29:34;17.73;;;9.30;;
46391;SDS011;32098;49.448;7.904;2023-03-05T03:32:01;17.70;;;9.60;;
46391;SDS011;32098;49.448;7.904;2023-03-05T03:34:28;18.77;;;9.93;;
46391;SDS011;32098;49.448;7.904;2023-03-05T03:36:55;19.40;;;9.40;;
46391;SDS011;32098;49.448;7.904;2023-03-05T03:39:21;20.00;;;9.57;;
46391;SDS011;32098;49.448;7.904;2023-03-05T03:41:50;19.07;;;8.93;;
46391;SDS011;32098;49.448;7.904;2023-03-05T03:44:17;22.03;;;10.73;;
46391;SDS011;32098;49.448;7.904;2023-03-05T03:46:46;18.33;;;9.27;;
46391;SDS011;32098;49.448;7.904;2023-03-05T03:49:14;18.80;;;9.80;;
46391;SDS011;32098;49.448;7.904;2023-03-05T03:51:43;19.87;;;9.73;;
46391;SDS011;32098;49.448;7.904;2023-03-05T03:54:09;17.00;;;9.33;;
46391;SDS011;32098;49.448;7.904;2023-03-05T03:56:36;18.90;;;9.13;;
46391;SDS011;32098;49.448;7.904;2023-03-05T03:59:02;21.07;;;10.97;;
46391;SDS011;32098;49.448;7.904;2023-03-05T04:01:29;18.03;;;9.67;;
46391;SDS011;32098;49.448;7.904;2023-03-05T04:03:55;18.73;;;9.37;;
46391;SDS011;32098;49.448;7.904;2023-03-05T04:06:22;18.57;;;9.90;;
46391;SDS011;32098;49.448;7.904;2023-03-05T04:08:48;23.73;;;10.67;;
46391;SDS011;32098;49.448;7.904;2023-03-05T04:11:15;17.97;;;9.30;;
46391;SDS011;32098;49.448;7.904;2023-03-05T04:13:45;20.20;;;9.77;;
46391;SDS011;32098;49.448;7.904;2023-03-05T04:16:13;21.00;;;9.73;;
46391;SDS011;32098;49.448;7.904;2023-03-05T04:18:40;18.43;;;8.47;;
46391;SDS011;32098;49.448;7.904;2023-03-05T04:21:08;18.07;;;8.77;;
46391;SDS011;32098;49.448;7.904;2023-03-05T04:23:34;18.60;;;9.50;;
46391;SDS011;32098;49.448;7.904;2023-03-05T04:26:01;16.80;;;8.50;;
46391;SDS011;32098;49.448;7.904;2023-03-05T04:28:27;17.80;;;9.23;;
46391;SDS011;32098;49.448;7.904;2023-03-05T04:30:54;19.40;;;9.80;;
46391;SDS011;32098;49.448;7.904;2023-03-05T04:33:20;19.73;;;9.93;;
46391;SDS011;32098;49.448;7.904;2023-03-05T04:35:47;18.50;;;9.20;;
46391;SDS011;32098;49.448;7.904;2023-03-05T04:38:14;15.93;;;8.37;;
46391;SDS011;32098;49.448;7.904;2023-03-05T04:40:40;18.90;;;8.70;;
46391;SDS011;32098;49.448;7.904;2023-03-05T04:43:07;17.13;;;8.80;;
46391;SDS011;32098;49.448;7.904;2023-03-05T04:45:33;19.77;;;10.50;;
46391;SDS011;32098;49.448;7.904;2023-03-05T04:48:00;18.27;;;9.43;;
46391;SDS011;32098;49.448;7.904;2023-03-05T04:50:26;16.20;;;8.13;;
46391;SDS011;32098;49.448;7.904;2023-03-05T04:52:53;17.07;;;9.10;;
46391;SDS011;32098;49.448;7.904;2023-03-05T04:55:19;17.93;;;9.67;;
46391;SDS011;32098;49.448;7.904;2023-03-05T04:57:46;17.13;;;8.83;;
46391;SDS011;32098;49.448;7.904;2023-03-05T05:00:13;16.77;;;8.43;;
46391;SDS011;32098;49.448;7.904;2023-03-05T05:02:42;21.73;;;9.37;;
46391;SDS011;32098;49.448;7.904;2023-03-05T05:05:12;19.33;;;9.50;;
46391;SDS011;32098;49.448;7.904;2023-03-05T05:07:40;18.70;;;9.63;;
46391;SDS011;32098;49.448;7.904;2023-03-05T05:10:07;17.40;;;8.80;;
46391;SDS011;32098;49.448;7.904;2023-03-05T05:12:35;20.97;;;9.27;;
46391;SDS011;32098;49.448;7.904;2023-03-05T05:15:03;18.80;;;9.47;;
46391;SDS011;32098;49.448;7.904;2023-03-05T05:17:31;16.80;;;8.67;;
46391;SDS011;32098;49.448;7.904;2023-03-05T05:20:00;14.97;;;8.50;;
46391;SDS011;32098;49.448;7.904;2023-03-05T05:22:27;16.73;;;9.60;;
46391;SDS011;32098;49.448;7.904;2023-03-05T05:24:54;16.60;;;8.90;;
46391;SDS011;32098;49.448;7.904;2023-03-05T05:27:21;17.40;;;8.50;;
46391;SDS011;32098;49.448;7.904;2023-03-05T05:29:48;16.87;;;9.20;;
46391;SDS011;32098;49.448;7.904;2023-03-05T05:32:18;57.90;;;28.50;;
46391;SDS011;32098;49.448;7.904;2023-03-05T05:34:46;51.93;;;21.97;;
46391;SDS011;32098;49.448;7.904;2023-03-05T05:37:13;63.70;;;27.77;;
46391;SDS011;32098;49.448;7.904;2023-03-05T05:39:40;112.13;;;46.73;;
46391;SDS011;32098;49.448;7.904;2023-03-05T05:42:06;55.73;;;24.57;;
46391;SDS011;32098;49.448;7.904;2023-03-05T05:44:33;29.63;;;15.57;;
46391;SDS011;32098;49.448;7.904;2023-03-05T05:47:00;21.40;;;11.63;;
46391;SDS011;32098;49.448;7.904;2023-03-05T05:49:26;19.20;;;9.47;;
46391;SDS011;32098;49.448;7.904;2023-03-05T05:51:53;20.27;;;9.83;;
46391;SDS011;32098;49.448;7.904;2023-03-05T05:54:21;20.10;;;10.07;;
46391;SDS011;32098;49.448;7.904;2023-03-05T05:56:47;18.00;;;9.70;;
46391;SDS011;32098;49.448;7.904;2023-03-05T05:59:14;17.33;;;8.97;;
46391;SDS011;32098;49.448;7.904;2023-03-05T06:01:40;17.40;;;9.47;;
46391;SDS011;32098;49.448;7.904;2023-03-05T06:04:07;18.53;;;9.20;;
46391;SDS011;32098;49.448;7.904;2023-03-05T06:06:33;16.57;;;8.93;;
46391;SDS011;32098;49.448;7.904;2023-03-05T06:09:00;17.10;;;9.73;;
46391;SDS011;32098;49.448;7.904;2023-03-05T06:11:26;17.60;;;10.43;;
46391;SDS011;32098;49.448;7.904;2023-03-05T06:13:53;17.20;;;10.40;;
46391;SDS011;32098;49.448;7.904;2023-03-05T06:16:21;16.90;;;9.63;;
46391;SDS011;32098;49.448;7.904;2023-03-05T06:18:49;20.20;;;10.53;;
46391;SDS011;32098;49.448;7.904;2023-03-05T06:21:17;18.93;;;11.23;;
46391;SDS011;32098;49.448;7.904;2023-03-05T06:23:45;20.53;;;10.83;;
46391;SDS011;32098;49.448;7.904;2023-03-05T06:26:14;23.70;;;11.23;;
46391;SDS011;32098;49.448;7.904;2023-03-05T06:28:42;22.00;;;10.80;;
46391;SDS011;32098;49.448;7.904;2023-03-05T06:31:16;21.20;;;9.97;;
46391;SDS011;32098;49.448;7.904;2023-03-05T06:33:45;17.57;;;9.03;;
46391;SDS011;32098;49.448;7.904;2023-03-05T06:36:12;15.60;;;9.37;;
46391;SDS011;32098;49.448;7.904;2023-03-05T06:38:41;19.97;;;9.47;;
46391;SDS011;32098;49.448;7.904;2023-03-05T06:41:09;23.80;;;9.93;;
46391;SDS011;32098;49.448;7.904;2023-03-05T06:43:39;21.77;;;10.43;;
46391;SDS011;32098;49.448;7.904;2023-03-05T06:46:28;17.90;;;9.87;;
46391;SDS011;32098;49.448;7.904;2023-03-05T06:48:55;21.13;;;10.20;;
46391;SDS011;32098;49.448;7.904;2023-03-05T06:51:24;22.70;;;11.03;;
46391;SDS011;32098;49.448;7.904;2023-03-05T06:53:58;20.87;;;10.50;;
46391;SDS011;32098;49.448;7.904;2023-03-05T06:56:26;20.47;;;11.03;;
46391;SDS011;32098;49.448;7.904;2023-03-05T06:58:53;21.37;;;11.13;;
46391;SDS011;32098;49.448;7.904;2023-03-05T07:01:20;24.33;;;11.57;;
46391;SDS011;32098;49.448;7.904;2023-03-05T07:03:50;22.53;;;11.00;;
46391;SDS011;32098;49.448;7.904;2023-03-05T07:06:17;24.77;;;10.67;;
46391;SDS011;32098;49.448;7.904;2023-03-05T07:08:45;19.50;;;10.30;;
46391;SDS011;32098;49.448;7.904;2023-03-05T07:11:12;20.53;;;10.80;;
46391;SDS011;32098;49.448;7.904;2023-03-05T07:13:40;20.93;;;11.03;;
46391;SDS011;32098;49.448;7.904;2023-03-05T07:16:09;21.57;;;11.33;;
46391;SDS011;32098;49.448;7.904;2023-03-05T07:18:38;21.10;;;11.97;;
46391;SDS011;32098;49.448;7.904;2023-03-05T07:21:05;19.97;;;10.90;;
46391;SDS011;32098;49.448;7.904;2023-03-05T07:23:34;19.60;;;11.07;;
46391;SDS011;32098;49.448;7.904;2023-03-05T07:26:01;17.40;;;10.60;;
46391;SDS011;32098;49.448;7.904;2023-03-05T07:28:29;19.53;;;11.27;;
46391;SDS011;32098;49.448;7.904;2023-03-05T07:30:58;18.10;;;9.97;;
46391;SDS011;32098;49.448;7.904;2023-03-05T07:33:29;25.87;;;13.10;;
46391;SDS011;32098;49.448;7.904;2023-03-05T07:35:55;26.87;;;14.17;;
46391;SDS011;32098;49.448;7.904;2023-03-05T07:38:22;25.00;;;12.67;;
46391;SDS011;32098;49.448;7.904;2023-03-05T07:40:49;24.30;;;11.93;;
46391;SDS011;32098;49.448;7.904;2023-03-05T07:43:15;20.77;;;12.07;;
46391;SDS011;32098;49.448;7.904;2023-03-05T07:45:43;25.20;;;12.63;;
46391;SDS011;32098;49.448;7.904;2023-03-05T07:48:12;19.60;;;10.23;;
46391;SDS011;32098;49.448;7.904;2023-03-05T07:50:41;14.73;;;8.17;;
46391;SDS011;32098;49.448;7.904;2023-03-05T07:53:07;11.17;;;6.73;;
46391;SDS011;32098;49.448;7.904;2023-03-05T07:55:34;12.40;;;7.13;;
46391;SDS011;32098;49.448;7.904;2023-03-05T07:58:06;10.73;;;6.73;;
46391;SDS011;32098;49.448;7.904;2023-03-05T08:00:33;11.87;;;6.70;;
46391;SDS011;32098;49.448;7.904;2023-03-05T08:02:59;14.23;;;7.10;;
46391;SDS011;32098;49.448;7.904;2023-03-05T08:05:25;11.07;;;6.67;;
46391;SDS011;32098;49.448;7.904;2023-03-05T08:07:52;11.10;;;5.97;;
46391;SDS011;32098;49.448;7.904;2023-03-05T08:10:18;14.00;;;6.50;;
46391;SDS011;32098;49.448;7.904;2023-03-05T08:12:45;9.17;;;5.60;;
46391;SDS011;32098;49.448;7.904;2023-03-05T08:15:12;9.33;;;5.47;;
46391;SDS011;32098;49.448;7.904;2023-03-05T08:17:38;8.73;;;5.27;;
46391;SDS011;32098;49.448;7.904;2023-03-05T08:20:05;11.27;;;5.73;;
46391;SDS011;32098;49.448;7.904;2023-03-05T08:22:36;13.97;;;6.40;;
46391;SDS011;32098;49.448;7.904;2023-03-05T08:25:04;10.27;;;6.03;;
46391;SDS011;32098;49.448;7.904;2023-03-05T08:27:31;13.63;;;7.73;;
46391;SDS011;32098;49.448;7.904;2023-03-05T08:29:59;9.93;;;5.20;;
46391;SDS011;32098;49.448;7.904;2023-03-05T08:32:27;8.97;;;5.43;;
46391;SDS011;32098;49.448;7.904;2023-03-05T08:34:55;10.97;;;5.27;;
46391;SDS011;32098;49.448;7.904;2023-03-05T08:37:23;9.33;;;5.17;;
46391;SDS011;32098;49.448;7.904;2023-03-05T08:39:50;11.10;;;5.07;;
46391;SDS011;32098;49.448;7.904;2023-03-05T08:42:16;10.50;;;5.17;;
46391;SDS011;32098;49.448;7.904;2023-03-05T08:44:43;8.53;;;4.73;;
46391;SDS011;32098;49.448;7.904;2023-03-05T08:47:09;9.00;;;4.90;;
46391;SDS011;32098;49.448;7.904;2023-03-05T08:49:36;8.30;;;4.37;;
46391;SDS011;32098;49.448;7.904;2023-03-05T08:52:02;7.50;;;4.30;;
46391;SDS011;32098;49.448;7.904;2023-03-05T08:54:29;7.97;;;3.90;;
46391;SDS011;32098;49.448;7.904;2023-03-05T08:56:55;6.87;;;4.20;;
46391;SDS011;32098;49.448;7.904;2023-03-05T08:59:22;6.40;;;4.00;;
46391;SDS011;32098;49.448;7.904;2023-03-05T09:01:48;7.80;;;3.80;;
46391;SDS011;32098;49.448;7.904;2023-03-05T09:04:15;6.47;;;4.03;;
46391;SDS011;32098;49.448;7.904;2023-03-05T09:06:42;6.57;;;3.50;;
46391;SDS011;32098;49.448;7.904;2023-03-05T09:09:08;6.17;;;3.50;;
46391;SDS011;32098;49.448;7.904;2023-03-05T09:11:35;6.03;;;3.40;;
46391;SDS011;32098;49.448;7.904;2023-03-05T09:14:02;5.97;;;3.67;;
46391;SDS011;32098;49.448;7.904;2023-03-05T09:16:30;5.70;;;3.10;;
46391;SDS011;32098;49.448;7.904;2023-03-05T09:18:58;5.00;;;3.37;;
46391;SDS011;32098;49.448;7.904;2023-03-05T09:21:25;4.97;;;3.07;;
46391;SDS011;32098;49.448;7.904;2023-03-05T09:23:51;4.93;;;2.90;;
46391;SDS011;32098;49.448;7.904;2023-03-05T09:26:18;7.80;;;3.20;;
46391;SDS011;32098;49.448;7.904;2023-03-05T09:28:45;6.27;;;4.20;;
46391;SDS011;32098;49.448;7.904;2023-03-05T09:31:12;7.80;;;4.97;;
46391;SDS011;32098;49.448;7.904;2023-03-05T09:33:39;5.70;;;3.00;;
46391;SDS011;32098;49.448;7.904;2023-03-05T09:36:19;6.53;;;3.63;;
46391;SDS011;32098;49.448;7.904;2023-03-05T09:38:49;3.83;;;2.70;;
46391;SDS011;32098;49.448;7.904;2023-03-05T09:46:53;9.00;;;6.50;;
46391;SDS011;32098;49.448;7.904;2023-03-05T09:53:13;10.53;;;3.57;;
46391;SDS011;32098;49.448;7.904;2023-03-05T09:56:03;14.77;;;9.43;;
46391;SDS011;32098;49.448;7.904;2023-03-05T09:58:39;18.37;;;11.77;;
46391;SDS011;32098;49.448;7.904;2023-03-05T10:01:09;13.40;;;7.53;;
46391;SDS011;32098;49.448;7.904;2023-03-05T10:09:26;4.93;;;2.93;;
46391;SDS011;32098;49.448;7.904;2023-03-05T10:14:48;6.43;;;3.30;;
46391;SDS011;32098;49.448;7.904;2023-03-05T10:26:39;9.80;;;6.30;;
46391;SDS011;32098;49.448;7.904;2023-03-05T10:28:56;13.93;;;9.00;;
46391;SDS011;32098;49.448;7.904;2023-03-05T10:42:46;14.07;;;8.17;;
46391;SDS011;32098;49.448;7.904;2023-03-05T10:45:25;9.03;;;5.83;;
46391;SDS011;32098;49.448;7.904;2023-03-05T10:48:23;5.40;;;3.23;;
46391;SDS011;32098;49.448;7.904;2023-03-05T10:51:14;14.30;;;7.70;;
46391;SDS011;32098;49.448;7.904;2023-03-05T10:56:18;21.27;;;11.33;;
46391;SDS011;32098;49.448;7.904;2023-03-05T10:58:47;13.23;;;7.37;;
46391;SDS011;32098;49.448;7.904;2023-03-05T11:01:18;7.90;;;4.33;;
46391;SDS011;32098;49.448;7.904;2023-03-05T11:06:31;8.03;;;5.20;;
46391;SDS011;32098;49.448;7.904;2023-03-05T11:14:27;4.60;;;3.00;;
46391;SDS011;32098;49.448;7.904;2023-03-05T11:16:56;5.00;;;3.10;;
46391;SDS011;32098;49.448;7.904;2023-03-05T11:19:27;15.67;;;6.07;;
46391;SDS011;32098;49.448;7.904;2023-03-05T11:22:14;7.53;;;4.80;;
46391;SDS011;32098;49.448;7.904;2023-03-05T11:24:44;6.50;;;3.93;;
46391;SDS011;32098;49.448;7.904;2023-03-05T11:27:31;5.77;;;3.37;;
46391;SDS011;32098;49.448;7.904;2023-03-05T11:30:03;4.53;;;3.13;;
46391;SDS011;32098;49.448;7.904;2023-03-05T11:32:43;6.93;;;3.97;;
46391;SDS011;32098;49.448;7.904;2023-03-05T11:35:29;10.90;;;5.37;;
46391;SDS011;32098;49.448;7.904;2023-03-05T11:37:59;9.10;;;4.70;;
46391;SDS011;32098;49.448;7.904;2023-03-05T11:40:28;10.43;;;6.93;;
46391;SDS011;32098;49.448;7.904;2023-03-05T11:42:59;11.00;;;6.53;;
46391;SDS011;32098;49.448;7.904;2023-03-05T11:45:28;4.40;;;3.07;;
46391;SDS011;32098;49.448;7.904;2023-03-05T11:48:39;3.40;;;2.73;;
46391;SDS011;32098;49.448;7.904;2023-03-05T11:50:52;3.33;;;2.40;;
46391;SDS011;32098;49.448;7.904;2023-03-05T11:53:24;4.73;;;3.03;;
46391;SDS011;32098;49.448;7.904;2023-03-05T11:56:03;4.10;;;2.63;;
46391;SDS011;32098;49.448;7.904;2023-03-05T11:58:38;7.57;;;3.10;;
46391;SDS011;32098;49.448;7.904;2023-03-05T12:01:09;9.10;;;4.07;;
46391;SDS011;32098;49.448;7.904;2023-03-05T12:03:41;3.73;;;2.60;;
46391;SDS011;32098;49.448;7.904;2023-03-05T12:06:12;4.40;;;2.80;;
46391;SDS011;32098;49.448;7.904;2023-03-05T12:08:45;3.70;;;2.87;;
46391;SDS011;32098;49.448;7.904;2023-03-05T12:11:20;5.27;;;2.80;;
46391;SDS011;32098;49.448;7.904;2023-03-05T12:13:53;4.70;;;2.70;;
46391;SDS011;32098;49.448;7.904;2023-03-05T12:16:25;4.70;;;4.30;;
46391;SDS011;32098;49.448;7.904;2023-03-05T12:19:02;8.83;;;6.53;;
46391;SDS011;32098;49.448;7.904;2023-03-05T12:21:35;4.63;;;3.77;;
46391;SDS011;32098;49.448;7.904;2023-03-05T12:31:58;5.87;;;3.80;;
46391;SDS011;32098;49.448;7.904;2023-03-05T12:37:12;5.23;;;3.63;;
46391;SDS011;32098;49.448;7.904;2023-03-05T12:47:35;7.43;;;5.10;;
46391;SDS011;32098;49.448;7.904;2023-03-05T12:55:38;5.77;;;3.80;;
46391;SDS011;32098;49.448;7.904;2023-03-05T12:58:12;10.83;;;7.83;;
46391;SDS011;32098;49.448;7.904;2023-03-05T13:00:47;8.53;;;5.90;;
46391;SDS011;32098;49.448;7.904;2023-03-05T13:03:26;7.30;;;5.80;;
46391;SDS011;32098;49.448;7.904;2023-03-05T13:05:56;5.70;;;3.90;;
46391;SDS011;32098;49.448;7.904;2023-03-05T13:08:26;7.73;;;5.37;;
46391;SDS011;32098;49.448;7.904;2023-03-05T13:10:58;8.17;;;5.07;;
46391;SDS011;32098;49.448;7.904;2023-03-05T13:13:42;7.87;;;4.63;;
46391;SDS011;32098;49.448;7.904;2023-03-05T13:16:21;7.00;;;4.57;;
46391;SDS011;32098;49.448;7.904;2023-03-05T13:18:52;6.40;;;3.77;;
46391;SDS011;32098;49.448;7.904;2023-03-05T13:21:23;5.47;;;3.63;;
46391;SDS011;32098;49.448;7.904;2023-03-05T13:23:52;7.03;;;4.00;;
46391;SDS011;32098;49.448;7.904;2023-03-05T13:26:27;4.13;;;3.10;;
46391;SDS011;32098;49.448;7.904;2023-03-05T13:31:40;4.20;;;3.50;;
46391;SDS011;32098;49.448;7.904;2023-03-05T13:34:22;4.10;;;3.47;;
46391;SDS011;32098;49.448;7.904;2023-03-05T13:37:17;5.70;;;3.50;;
46391;SDS011;32098;49.448;7.904;2023-03-05T13:40:02;6.10;;;3.97;;
46391;SDS011;32098;49.448;7.904;2023-03-05T13:42:40;7.47;;;3.80;;
46391;SDS011;32098;49.448;7.904;2023-03-05T13:45:19;4.93;;;3.60;;
46391;SDS011;32098;49.448;7.904;2023-03-05T13:47:55;5.33;;;3.80;;
46391;SDS011;32098;49.448;7.904;2023-03-05T13:53:13;15.27;;;6.37;;
46391;SDS011;32098;49.448;7.904;2023-03-05T13:55:51;7.43;;;4.30;;
46391;SDS011;32098;49.448;7.904;2023-03-05T14:03:48;6.83;;;4.07;;
46391;SDS011;32098;49.448;7.904;2023-03-05T14:06:17;4.87;;;3.97;;
46391;SDS011;32098;49.448;7.904;2023-03-05T14:08:48;6.00;;;4.10;;
46391;SDS011;32098;49.448;7.904;2023-03-05T14:11:20;9.07;;;4.13;;
46391;SDS011;32098;49.448;7.904;2023-03-05T14:13:46;7.27;;;4.03;;
46391;SDS011;32098;49.448;7.904;2023-03-05T14:16:22;6.90;;;3.97;;
46391;SDS011;32098;49.448;7.904;2023-03-05T14:18:55;5.27;;;3.87;;
46391;SDS011;32098;49.448;7.904;2023-03-05T14:21:23;8.27;;;4.90;;
46391;SDS011;32098;49.448;7.904;2023-03-05T14:23:50;8.87;;;4.30;;
46391;SDS011;32098;49.448;7.904;2023-03-05T14:26:27;6.70;;;4.57;;
46391;SDS011;32098;49.448;7.904;2023-03-05T14:29:00;7.97;;;4.93;;
46391;SDS011;32098;49.448;7.904;2023-03-05T14:31:38;7.70;;;4.57;;
46391;SDS011;32098;49.448;7.904;2023-03-05T14:34:28;8.43;;;5.47;;
46391;SDS011;32098;49.448;7.904;2023-03-05T14:36:58;10.47;;;6.83;;
46391;SDS011;32098;49.448;7.904;2023-03-05T14:39:36;17.50;;;11.30;;
46391;SDS011;32098;49.448;7.904;2023-03-05T14:42:13;20.33;;;12.30;;
46391;SDS011;32098;49.448;7.904;2023-03-05T14:44:51;10.20;;;6.97;;
46391;SDS011;32098;49.448;7.904;2023-03-05T14:47:18;14.90;;;9.97;;
46391;SDS011;32098;49.448;7.904;2023-03-05T14:49:44;12.37;;;8.80;;
46391;SDS011;32098;49.448;7.904;2023-03-05T14:52:14;11.87;;;7.40;;
46391;SDS011;32098;49.448;7.904;2023-03-05T14:54:43;12.50;;;7.53;;
46391;SDS011;32098;49.448;7.904;2023-03-05T14:57:14;10.23;;;5.60;;
46391;SDS011;32098;49.448;7.904;2023-03-05T14:59:43;12.17;;;6.83;;
46391;SDS011;32098;49.448;7.904;2023-03-05T15:02:17;9.77;;;5.93;;
46391;SDS011;32098;49.448;7.904;2023-03-05T15:04:46;9.57;;;6.50;;
46391;SDS011;32098;49.448;7.904;2023-03-05T15:09:56;6.10;;;4.53;;
46391;SDS011;32098;49.448;7.904;2023-03-05T15:12:24;7.73;;;4.60;;
46391;SDS011;32098;49.448;7.904;2023-03-05T15:14:52;8.33;;;5.07;;
46391;SDS011;32098;49.448;7.904;2023-03-05T15:17:21;8.77;;;6.00;;
46391;SDS011;32098;49.448;7.904;2023-03-05T15:19:55;7.10;;;5.40;;
46391;SDS011;32098;49.448;7.904;2023-03-05T15:22:21;7.77;;;4.83;;
46391;SDS011;32098;49.448;7.904;2023-03-05T15:24:48;7.70;;;5.00;;
46391;SDS011;32098;49.448;7.904;2023-03-05T15:27:14;8.63;;;5.27;;
46391;SDS011;32098;49.448;7.904;2023-03-05T15:29:40;7.00;;;5.03;;
46391;SDS011;32098;49.448;7.904;2023-03-05T15:32:08;7.17;;;4.70;;
46391;SDS011;32098;49.448;7.904;2023-03-05T15:34:34;8.47;;;5.33;;
46391;SDS011;32098;49.448;7.904;2023-03-05T15:37:02;7.33;;;4.83;;
46391;SDS011;32098;49.448;7.904;2023-03-05T15:39:29;9.07;;;4.47;;
46391;SDS011;32098;49.448;7.904;2023-03-05T15:41:55;7.97;;;4.33;;
46391;SDS011;32098;49.448;7.904;2023-03-05T15:44:22;6.40;;;4.13;;
46391;SDS011;32098;49.448;7.904;2023-03-05T15:46:49;6.57;;;4.00;;
46391;SDS011;32098;49.448;7.904;2023-03-05T15:49:16;5.87;;;3.90;;
46391;SDS011;32098;49.448;7.904;2023-03-05T15:51:42;6.10;;;4.03;;
46391;SDS011;32098;49.448;7.904;2023-03-05T15:54:09;6.17;;;4.70;;
46391;SDS011;32098;49.448;7.904;2023-03-05T15:56:35;6.60;;;3.87;;
46391;SDS011;32098;49.448;7.904;2023-03-05T15:59:03;5.50;;;4.07;;
46391;SDS011;32098;49.448;7.904;2023-03-05T16:01:30;6.37;;;4.67;;
46391;SDS011;32098;49.448;7.904;2023-03-05T16:03:57;6.53;;;4.30;;
46391;SDS011;32098;49.448;7.904;2023-03-05T16:06:23;6.13;;;4.53;;
46391;SDS011;32098;49.448;7.904;2023-03-05T16:08:51;6.20;;;4.10;;
46391;SDS011;32098;49.448;7.904;2023-03-05T16:11:24;5.70;;;3.80;;
46391;SDS011;32098;49.448;7.904;2023-03-05T16:13:52;5.97;;;3.60;;
46391;SDS011;32098;49.448;7.904;2023-03-05T16:16:19;4.30;;;3.20;;